createdAt,value
2022-11-20T00:01:10.352Z,101528.25
2022-11-20T00:03:39.713Z,101521.84
2022-11-20T00:06:09.428Z,101540.88
2022-11-20T00:08:37.855Z,101536.91
2022-11-20T00:11:07.797Z,101525.28
2022-11-20T00:13:38.469Z,101523.22
2022-11-20T00:16:08.771Z,101485.16
2022-11-20T00:18:36.953Z,101526.34
2022-11-20T00:21:07.910Z,101444.34
2022-11-20T00:23:36.058Z,101518.47
2022-11-20T00:26:05.553Z,101522.84
2022-11-20T00:28:33.821Z,101521.19
2022-11-20T00:31:06.314Z,101518.22
2022-11-20T00:33:34.465Z,101492.00
2022-11-20T00:36:03.744Z,101516.91
2022-11-20T00:38:33.237Z,101515.38
2022-11-20T00:41:02.488Z,101510.22
2022-11-20T00:43:30.818Z,101493.88
2022-11-20T00:45:59.907Z,101510.22
2022-11-20T00:48:28.519Z,101499.88
2022-11-20T00:50:57.265Z,101490.00
2022-11-20T00:53:25.623Z,101492.94
2022-11-20T00:55:58.733Z,101490.34
2022-11-20T00:58:30.721Z,101445.59
2022-11-20T01:01:03.299Z,101484.28
2022-11-20T01:03:33.608Z,101485.97
2022-11-20T01:06:05.910Z,101482.63
2022-11-20T01:08:34.255Z,101352.59
2022-11-20T01:11:06.613Z,101471.41
2022-11-20T01:13:40.701Z,101471.41
2022-11-20T01:16:10.080Z,101473.19
2022-11-20T01:18:38.964Z,101479.25
2022-11-20T01:21:09.104Z,101475.91
2022-11-20T01:23:39.334Z,101469.72
2022-11-20T01:26:10.152Z,101474.09
2022-11-20T01:28:38.455Z,101452.50
2022-11-20T01:31:14.392Z,101471.41
2022-11-20T01:33:43.250Z,101466.25
2022-11-20T01:36:12.367Z,101461.84
2022-11-20T01:38:41.113Z,101449.38
2022-11-20T01:41:12.376Z,101450.63
2022-11-20T01:43:39.197Z,101449.88
2022-11-20T01:46:17.709Z,101447.94
2022-11-20T01:48:53.664Z,101442.78
2022-11-20T01:51:28.844Z,101425.81
2022-11-20T01:53:59.751Z,101420.91
2022-11-20T01:56:30.695Z,101428.75
2022-11-20T01:59:03.652Z,101425.41
2022-11-20T02:01:32.031Z,101425.41
2022-11-20T02:04:01.207Z,101424.50
2022-11-20T02:06:32.998Z,101418.44
2022-11-20T02:09:00.833Z,101409.13
2022-11-20T02:11:31.766Z,101410.69
2022-11-20T02:13:59.916Z,101412.38
2022-11-20T02:16:30.944Z,101400.44
2022-11-20T02:19:01.270Z,101407.88
2022-11-20T02:21:39.106Z,101378.56
2022-11-20T02:24:11.950Z,101346.47
2022-11-20T02:26:46.531Z,101394.97
2022-11-20T02:29:15.642Z,101387.25
2022-11-20T02:31:45.512Z,101328.28
2022-11-20T02:34:13.671Z,101384.44
2022-11-20T02:36:44.055Z,101377.47
2022-11-20T02:39:17.886Z,101363.56
2022-11-20T02:41:46.059Z,101374.78
2022-11-20T02:44:14.719Z,101364.59
2022-11-20T02:46:42.515Z,101369.50
2022-11-20T02:49:10.502Z,101358.16
2022-11-20T02:51:38.437Z,101364.47
2022-11-20T02:54:06.328Z,101359.31
2022-11-20T02:56:35.666Z,101358.53
2022-11-20T02:59:03.555Z,101341.25
2022-11-20T03:01:31.503Z,101355.84
2022-11-20T03:03:59.495Z,101355.84
2022-11-20T03:06:27.354Z,101321.25
2022-11-20T03:08:55.474Z,101353.50
2022-11-20T03:11:23.458Z,101343.16
2022-11-20T03:13:52.657Z,101332.38
2022-11-20T03:16:22.573Z,101331.38
2022-11-20T03:18:51.512Z,101337.78
2022-11-20T03:21:19.346Z,101328.91
2022-11-20T03:23:47.322Z,101342.81
2022-11-20T03:26:17.615Z,101337.66
2022-11-20T03:28:50.246Z,101334.19
2022-11-20T03:31:22.448Z,101297.50
2022-11-20T03:33:50.368Z,101323.88
2022-11-20T03:36:20.748Z,101322.06
2022-11-20T03:38:49.260Z,101304.91
2022-11-20T03:41:19.745Z,101253.28
2022-11-20T03:43:50.294Z,101290.66
2022-11-20T03:46:20.166Z,101309.97
2022-11-20T03:48:51.537Z,101307.38
2022-11-20T03:51:21.617Z,101303.00
2022-11-20T03:53:50.787Z,101292.88
2022-11-20T03:56:20.624Z,101291.13
2022-11-20T03:58:48.596Z,101263.38
2022-11-20T04:01:20.747Z,101280.00
2022-11-20T04:03:49.679Z,101281.13
2022-11-20T04:06:19.392Z,101286.53
2022-11-20T04:08:52.418Z,101283.94
2022-11-20T04:11:24.010Z,101282.94
2022-11-20T04:13:54.157Z,101282.94
2022-11-20T04:16:24.623Z,101280.34
2022-11-20T04:18:54.286Z,101267.81
2022-11-20T04:21:22.460Z,101241.88
2022-11-20T04:23:50.707Z,101273.28
2022-11-20T04:26:19.042Z,101245.59
2022-11-20T04:28:47.078Z,101252.00
2022-11-20T04:31:16.396Z,101263.09
2022-11-20T04:33:45.871Z,101261.16
2022-11-20T04:36:15.750Z,101238.09
2022-11-20T04:38:44.527Z,101243.03
2022-11-20T04:41:17.196Z,101234.28
2022-11-20T04:43:49.492Z,101210.94
2022-11-20T04:46:18.050Z,101243.03
2022-11-20T04:48:48.760Z,101228.44
2022-11-20T04:51:17.361Z,101243.03
2022-11-20T04:53:45.211Z,101230.25
2022-11-20T04:56:14.727Z,101229.13
2022-11-20T04:58:42.993Z,101229.44
2022-11-20T05:01:14.064Z,101228.56
2022-11-20T05:03:43.629Z,101145.63
2022-11-20T05:06:17.620Z,101225.44
2022-11-20T05:08:45.893Z,101217.28
2022-11-20T05:11:15.389Z,101205.03
2022-11-20T05:13:43.982Z,101211.28
2022-11-20T05:16:14.419Z,101212.97
2022-11-20T05:18:43.198Z,101212.97
2022-11-20T05:21:13.488Z,101192.69
2022-11-20T05:23:43.263Z,101208.53
2022-11-20T05:26:16.021Z,101209.84
2022-11-20T05:28:43.893Z,101191.03
2022-11-20T05:31:13.678Z,101213.44
2022-11-20T05:33:42.876Z,101204.03
2022-11-20T05:36:13.350Z,101205.81
2022-11-20T05:38:42.050Z,101188.66
2022-11-20T05:41:11.579Z,101191.38
2022-11-20T05:43:41.567Z,101192.16
2022-11-20T05:46:11.312Z,101169.25
2022-11-20T05:48:40.189Z,101183.63
2022-11-20T05:51:10.987Z,101187.09
2022-11-20T05:53:43.840Z,101175.91
2022-11-20T05:56:18.672Z,101175.09
2022-11-20T05:58:47.570Z,101142.72
2022-11-20T06:01:17.817Z,101186.44
2022-11-20T06:03:48.681Z,101189.78
2022-11-20T06:06:17.739Z,101176.91
2022-11-20T06:08:47.015Z,101170.06
2022-11-20T06:11:16.435Z,101162.22
2022-11-20T06:13:44.717Z,101163.00
2022-11-20T06:16:15.499Z,101163.00
2022-11-20T06:18:43.637Z,101175.00
2022-11-20T06:21:14.149Z,101169.06
2022-11-20T06:23:42.624Z,101171.75
2022-11-20T06:26:14.035Z,101160.75
2022-11-20T06:28:42.313Z,101176.91
2022-11-20T06:31:13.144Z,101146.19
2022-11-20T06:33:41.483Z,101161.44
2022-11-20T06:36:12.048Z,101108.66
2022-11-20T06:38:40.468Z,101150.34
2022-11-20T06:41:09.589Z,101149.09
2022-11-20T06:43:38.864Z,101154.72
2022-11-20T06:46:07.043Z,101149.56
2022-11-20T06:48:35.161Z,101152.13
2022-11-20T06:51:05.487Z,101146.19
2022-11-20T06:53:33.527Z,101141.94
2022-11-20T06:56:01.609Z,101136.66
2022-11-20T06:58:30.903Z,101120.41
2022-11-20T07:01:02.078Z,101130.59
2022-11-20T07:03:30.201Z,101132.28
2022-11-20T07:05:58.865Z,101145.06
2022-11-20T07:08:27.224Z,101141.72
2022-11-20T07:10:55.681Z,101120.19
2022-11-20T07:13:23.501Z,101141.81
2022-11-20T07:15:51.470Z,101135.66
2022-11-20T07:18:20.700Z,101134.09
2022-11-20T07:20:48.633Z,101135.88
2022-11-20T07:23:16.544Z,101133.41
2022-11-20T07:25:44.545Z,101129.16
2022-11-20T07:28:14.766Z,101110.88
2022-11-20T07:30:42.770Z,101118.16
2022-11-20T07:33:10.631Z,101117.50
2022-11-20T07:35:39.836Z,101107.19
2022-11-20T07:38:07.779Z,101113.25
2022-11-20T07:40:35.708Z,101098.22
2022-11-20T07:43:03.587Z,101105.84
2022-11-20T07:45:31.646Z,101110.22
2022-11-20T07:47:59.511Z,101112.00
2022-11-20T07:50:27.380Z,101107.06
2022-11-20T07:53:02.898Z,101100.22
2022-11-20T07:55:32.243Z,101103.81
2022-11-20T07:58:00.544Z,101093.59
2022-11-20T08:00:28.915Z,101098.09
2022-11-20T08:02:56.967Z,101087.78
2022-11-20T08:05:24.985Z,101078.34
2022-11-20T08:07:53.680Z,101078.56
2022-11-20T08:10:22.869Z,101074.41
2022-11-20T08:13:10.126Z,101072.84
2022-11-20T08:15:38.963Z,101057.25
2022-11-20T08:18:31.199Z,101054.25
2022-11-20T08:20:56.524Z,101069.47
2022-11-20T08:23:25.198Z,101067.00
2022-11-20T08:25:54.366Z,101064.53
2022-11-20T08:28:22.836Z,101025.09
2022-11-20T08:30:51.511Z,101063.88
2022-11-20T08:33:20.209Z,101048.28
2022-11-20T08:35:48.119Z,101037.16
2022-11-20T08:38:16.002Z,101027.31
2022-11-20T08:41:03.912Z,101039.81
2022-11-20T08:43:33.174Z,101041.84
2022-11-20T08:46:00.978Z,101031.50
2022-11-20T08:48:28.988Z,101040.03
2022-11-20T08:51:00.378Z,101028.13
2022-11-20T08:53:28.481Z,101024.78
2022-11-20T08:55:56.559Z,101022.19
2022-11-20T08:58:24.549Z,101019.63
2022-11-20T09:00:54.057Z,101022.19
2022-11-20T09:03:22.252Z,101023.19
2022-11-20T09:05:50.211Z,101012.88
2022-11-20T09:08:18.083Z,101014.66
2022-11-20T09:10:45.964Z,101013.88
2022-11-20T09:13:13.842Z,101007.03
2022-11-20T09:15:41.638Z,100994.59
2022-11-20T09:18:10.889Z,101012.41
2022-11-20T09:20:38.964Z,101004.75
2022-11-20T09:23:06.842Z,101010.81
2022-11-20T09:25:34.782Z,101002.19
2022-11-20T09:28:02.664Z,100994.53
2022-11-20T09:30:30.456Z,101003.19
2022-11-20T09:32:58.588Z,100989.38
2022-11-20T09:35:27.882Z,100990.38
2022-11-20T09:37:55.672Z,100987.91
2022-11-20T09:40:26.227Z,100957.69
2022-11-20T09:42:59.580Z,100980.06
2022-11-20T09:45:40.567Z,100964.06
2022-11-20T09:48:23.123Z,100984.97
2022-11-20T09:50:58.596Z,100973.94
2022-11-20T09:53:35.508Z,100963.63
2022-11-20T09:56:04.851Z,100955.66
2022-11-20T09:58:37.373Z,100956.88
2022-11-20T10:01:13.451Z,100954.41
2022-11-20T10:03:51.578Z,100957.66
2022-11-20T10:06:26.553Z,100963.25
2022-11-20T10:09:04.247Z,100929.13
2022-11-20T10:11:45.400Z,100937.31
2022-11-20T10:14:24.714Z,100936.22
2022-11-20T10:17:04.186Z,100931.75
2022-11-20T10:19:50.524Z,100917.03
2022-11-20T10:22:33.476Z,100916.16
2022-11-20T10:25:09.595Z,100904.63
2022-11-20T10:28:03.328Z,100919.53
2022-11-20T10:30:32.744Z,100919.53
2022-11-20T10:33:06.220Z,100911.78
2022-11-20T10:35:39.500Z,100910.19
2022-11-20T10:38:17.090Z,100909.31
2022-11-20T10:40:50.379Z,100906.72
2022-11-20T10:43:22.060Z,100897.19
2022-11-20T10:45:57.614Z,100897.19
2022-11-20T10:48:27.581Z,100898.09
2022-11-20T10:51:14.176Z,100850.66
2022-11-20T10:53:57.149Z,100852.47
2022-11-20T10:56:31.696Z,100887.75
2022-11-20T10:59:15.181Z,100890.44
2022-11-20T11:01:44.513Z,100882.50
2022-11-20T11:04:28.288Z,100885.47
2022-11-20T11:07:02.530Z,100878.72
2022-11-20T11:09:36.537Z,100746.13
2022-11-20T11:12:09.459Z,100858.28
2022-11-20T11:14:45.638Z,100860.06
2022-11-20T11:17:27.955Z,100855.00
2022-11-20T11:20:03.105Z,100849.84
2022-11-20T11:22:33.224Z,100843.00
2022-11-20T11:25:02.913Z,100842.19
2022-11-20T11:27:30.800Z,100843.88
2022-11-20T11:30:16.141Z,100815.56
2022-11-20T11:32:44.150Z,100834.44
2022-11-20T11:35:24.414Z,100825.00
2022-11-20T11:37:55.860Z,100816.38
2022-11-20T11:40:28.117Z,100814.78
2022-11-20T11:43:00.169Z,100806.94
2022-11-20T11:45:27.696Z,100798.19
2022-11-20T11:47:59.051Z,100805.34
2022-11-20T11:50:28.109Z,100800.28
2022-11-20T11:53:03.344Z,100793.34
2022-11-20T11:55:38.780Z,100795.72
2022-11-20T11:58:18.428Z,100751.13
2022-11-20T12:00:53.937Z,100748.34
2022-11-20T12:03:29.376Z,100749.44
2022-11-20T12:06:00.835Z,100782.41
2022-11-20T12:08:34.768Z,100773.28
2022-11-20T12:11:12.775Z,100774.47
2022-11-20T12:13:49.360Z,100775.25
2022-11-20T12:16:21.616Z,100768.13
2022-11-20T12:18:52.132Z,100769.69
2022-11-20T12:21:22.526Z,100772.19
2022-11-20T12:24:01.758Z,100759.56
2022-11-20T12:26:45.445Z,100761.56
2022-11-20T12:29:25.736Z,100742.09
2022-11-20T12:32:19.708Z,100755.22
2022-11-20T12:34:58.720Z,100749.84
2022-11-20T12:37:39.823Z,100746.06
2022-11-20T12:40:21.628Z,100759.56
2022-11-20T12:43:20.325Z,100749.94
2022-11-20T12:46:16.408Z,100747.06
2022-11-20T12:48:54.643Z,100741.09
2022-11-20T12:51:49.437Z,100737.44
2022-11-20T12:54:44.576Z,100729.88
2022-11-20T12:57:20.508Z,100734.34
2022-11-20T13:00:11.090Z,100733.66
2022-11-20T13:02:53.204Z,100706.25
2022-11-20T13:05:26.151Z,100721.84
2022-11-20T13:07:55.719Z,100719.38
2022-11-20T13:10:33.624Z,100712.53
2022-11-20T13:13:07.112Z,100715.41
2022-11-20T13:15:50.292Z,100706.06
2022-11-20T13:18:19.552Z,100706.06
2022-11-20T13:20:49.248Z,100683.16
2022-11-20T13:23:27.317Z,100702.78
2022-11-20T13:26:09.058Z,100682.34
2022-11-20T13:28:38.200Z,100696.84
2022-11-20T13:31:11.826Z,100684.84
2022-11-20T13:33:41.010Z,100689.78
2022-11-20T13:36:23.012Z,100680.88
2022-11-20T13:38:52.732Z,100666.97
2022-11-20T13:41:29.909Z,100662.78
2022-11-20T13:44:05.294Z,100663.41
2022-11-20T13:46:45.555Z,100639.09
2022-11-20T13:49:20.669Z,100663.19
2022-11-20T13:51:51.684Z,100669.16
2022-11-20T13:54:55.394Z,100664.00
2022-11-20T13:57:57.048Z,100648.22
2022-11-20T14:00:27.131Z,100647.44
2022-11-20T14:03:10.916Z,100649.91
2022-11-20T14:05:44.500Z,100660.94
2022-11-20T14:08:25.378Z,100653.88
2022-11-20T14:10:53.403Z,100594.38
2022-11-20T14:13:22.857Z,100616.38
2022-11-20T14:15:59.331Z,100640.88
2022-11-20T14:18:29.495Z,100636.53
2022-11-20T14:20:57.441Z,100634.72
2022-11-20T14:23:30.792Z,100627.00
2022-11-20T14:25:59.257Z,100630.47
2022-11-20T14:28:29.102Z,100607.25
2022-11-20T14:30:58.391Z,100626.00
2022-11-20T14:33:29.195Z,100622.53
2022-11-20T14:35:58.594Z,100617.19
2022-11-20T14:38:29.669Z,100605.88
2022-11-20T14:41:08.358Z,100624.31
2022-11-20T14:43:37.091Z,100622.22
2022-11-20T14:46:06.943Z,100600.72
2022-11-20T14:48:40.569Z,100610.53
2022-11-20T14:51:10.824Z,100604.28
2022-11-20T14:53:38.772Z,100609.34
2022-11-20T14:56:06.987Z,100602.28
2022-11-20T14:58:36.226Z,100598.81
2022-11-20T15:01:07.640Z,100551.44
2022-11-20T15:03:39.182Z,100586.53
2022-11-20T15:06:08.963Z,100596.53
2022-11-20T15:08:37.012Z,100592.97
2022-11-20T15:11:05.408Z,100577.31
2022-11-20T15:13:35.662Z,100585.34
2022-11-20T15:16:04.696Z,100573.03
2022-11-20T15:18:38.701Z,100567.72
2022-11-20T15:21:13.240Z,100571.56
2022-11-20T15:23:41.289Z,100563.72
2022-11-20T15:26:09.735Z,100562.13
2022-11-20T15:28:41.029Z,100562.25
2022-11-20T15:31:11.581Z,100549.84
2022-11-20T15:33:41.424Z,100544.09
2022-11-20T15:36:10.785Z,100546.78
2022-11-20T15:38:39.255Z,100537.34
2022-11-20T15:41:07.516Z,100531.31
2022-11-20T15:43:35.693Z,100539.03
2022-11-20T15:46:07.312Z,100537.34
2022-11-20T15:48:43.308Z,100528.63
2022-11-20T15:51:23.944Z,100541.50
2022-11-20T15:53:51.794Z,100520.78
2022-11-20T15:56:19.658Z,100537.16
2022-11-20T15:58:47.736Z,100525.25
2022-11-20T16:01:18.179Z,100519.09
2022-11-20T16:03:46.294Z,100503.66
2022-11-20T16:06:14.400Z,100485.84
2022-11-20T16:08:43.815Z,100504.44
2022-11-20T16:11:14.776Z,100497.50
2022-11-20T16:14:04.116Z,100497.59
2022-11-20T16:16:34.440Z,100498.50
2022-11-20T16:19:02.854Z,100495.03
2022-11-20T16:21:32.580Z,100487.19
2022-11-20T16:24:02.629Z,100487.19
2022-11-20T16:26:31.067Z,100475.00
2022-11-20T16:29:00.678Z,100485.59
2022-11-20T16:31:28.561Z,100444.22
2022-11-20T16:33:58.287Z,100485.41
2022-11-20T16:36:28.486Z,100484.50
2022-11-20T16:38:58.055Z,100478.56
2022-11-20T16:41:28.575Z,100463.53
2022-11-20T16:43:59.291Z,100463.00
2022-11-20T16:46:28.982Z,100468.06
2022-11-20T16:48:58.644Z,100469.78
2022-11-20T16:51:27.562Z,100460.28
2022-11-20T16:53:56.322Z,100468.88
2022-11-20T16:56:25.300Z,100462.91
2022-11-20T16:58:56.314Z,100455.19
2022-11-20T17:01:25.949Z,100429.56
2022-11-20T17:03:58.698Z,100454.47
2022-11-20T17:06:28.215Z,100426.75
2022-11-20T17:08:56.931Z,100407.34
2022-11-20T17:11:25.639Z,100414.13
2022-11-20T17:13:56.336Z,100418.41
2022-11-20T17:16:26.047Z,100241.88
2022-11-20T17:19:01.281Z,100417.59
2022-11-20T17:21:31.006Z,100397.13
2022-11-20T17:24:02.345Z,100393.97
2022-11-20T17:26:30.583Z,100411.03
2022-11-20T17:29:01.393Z,100404.22
2022-11-20T17:31:30.988Z,100400.84
2022-11-20T17:34:00.595Z,100394.78
2022-11-20T17:36:31.712Z,100394.88
2022-11-20T17:38:59.962Z,100393.19
2022-11-20T17:41:29.368Z,100382.69
2022-11-20T17:44:00.680Z,100388.75
2022-11-20T17:46:30.594Z,100385.47
2022-11-20T17:48:58.397Z,100377.72
2022-11-20T17:51:28.880Z,100377.72
2022-11-20T17:53:59.177Z,100357.63
2022-11-20T17:56:45.204Z,100362.59
2022-11-20T17:59:14.665Z,100360.09
2022-11-20T18:01:44.489Z,100366.25
2022-11-20T18:04:13.215Z,100373.19
2022-11-20T18:06:41.608Z,100375.75
2022-11-20T18:09:09.494Z,100367.66
2022-11-20T18:11:39.211Z,100396.38
2022-11-20T18:14:32.179Z,100385.00
2022-11-20T18:17:03.544Z,100376.28
2022-11-20T18:19:33.237Z,100362.59
2022-11-20T18:22:01.976Z,100381.91
2022-11-20T18:24:30.061Z,100379.31
2022-11-20T18:26:58.780Z,100364.13
2022-11-20T18:29:28.081Z,100256.47
2022-11-20T18:31:56.069Z,100372.75
2022-11-20T18:34:26.575Z,100372.06
2022-11-20T18:36:56.151Z,100375.63
2022-11-20T18:39:27.436Z,100387.81
2022-11-20T18:42:12.522Z,100383.72
2022-11-20T18:44:52.836Z,100391.47
2022-11-20T18:47:22.836Z,100383.53
2022-11-20T18:49:54.757Z,100392.53
2022-11-20T18:52:24.763Z,100399.56
2022-11-20T18:54:53.080Z,100360.75
2022-11-20T18:57:22.329Z,100400.66
2022-11-20T18:59:50.271Z,100408.59
2022-11-20T19:02:21.133Z,100411.34
2022-11-20T19:04:49.373Z,100416.69
2022-11-20T19:07:19.155Z,100399.78
2022-11-20T19:09:50.487Z,100414.31
2022-11-20T19:12:20.347Z,100413.59
2022-11-20T19:14:48.231Z,100372.16
2022-11-20T19:17:17.752Z,100418.75
2022-11-20T19:19:49.670Z,100391.22
2022-11-20T19:22:18.906Z,100386.59
2022-11-20T19:24:47.053Z,100435.13
2022-11-20T19:27:14.911Z,100441.88
2022-11-20T19:29:42.855Z,100431.88
2022-11-20T19:32:10.800Z,100445.88
2022-11-20T19:34:38.884Z,100451.03
2022-11-20T19:37:06.829Z,100457.69
2022-11-20T19:39:37.319Z,100455.69
2022-11-20T19:42:05.278Z,100453.81
2022-11-20T19:44:33.623Z,100445.09
2022-11-20T19:47:03.976Z,100430.56
2022-11-20T19:49:31.893Z,100443.31
2022-11-20T19:51:59.836Z,100421.13
2022-11-20T19:54:27.922Z,100444.13
2022-11-20T19:56:57.208Z,100442.34
2022-11-20T19:59:25.519Z,100438.06
2022-11-20T20:01:53.587Z,100449.28
2022-11-20T20:04:21.439Z,100440.75
2022-11-20T20:06:50.782Z,100439.94
2022-11-20T20:09:18.698Z,100438.44
2022-11-20T20:11:48.183Z,100439.34
2022-11-20T20:14:18.427Z,100428.13
2022-11-20T20:16:47.572Z,100427.34
2022-11-20T20:19:16.616Z,100431.41
2022-11-20T20:21:45.311Z,100396.97
2022-11-20T20:24:13.754Z,100446.13
2022-11-20T20:26:41.893Z,100455.81
2022-11-20T20:29:09.900Z,100454.84
2022-11-20T20:31:39.435Z,100452.88
2022-11-20T20:34:07.266Z,100476.06
2022-11-20T20:36:35.152Z,100470.03
2022-11-20T20:39:03.582Z,100476.88
2022-11-20T20:41:32.052Z,100473.41
2022-11-20T20:44:17.550Z,100438.22
2022-11-20T20:46:47.745Z,100471.00
2022-11-20T20:49:15.539Z,100474.47
2022-11-20T20:51:43.457Z,100466.84
2022-11-20T20:54:11.410Z,100479.94
2022-11-20T20:56:39.331Z,100414.78
2022-11-20T20:59:07.600Z,100475.66
2022-11-20T21:01:35.644Z,100474.97
2022-11-20T21:04:04.885Z,100479.41
2022-11-20T21:06:32.857Z,100478.63
2022-11-20T21:09:00.818Z,100480.31
2022-11-20T21:11:31.568Z,100477.72
2022-11-20T21:13:59.420Z,100480.31
2022-11-20T21:16:27.658Z,100471.59
2022-11-20T21:18:55.435Z,100486.16
2022-11-20T21:21:42.172Z,100486.97
2022-11-20T21:24:10.051Z,100488.66
2022-11-20T21:26:37.869Z,100481.63
2022-11-20T21:29:05.800Z,100479.81
2022-11-20T21:31:33.757Z,100483.91
2022-11-20T21:34:02.419Z,100483.81
2022-11-20T21:36:32.776Z,100485.50
2022-11-20T21:39:01.216Z,100485.50
2022-11-20T21:41:31.294Z,100488.88
2022-11-20T21:46:48.304Z,100490.56
2022-11-20T21:49:17.827Z,100487.97
2022-11-20T21:51:47.245Z,100452.53
2022-11-20T21:54:15.304Z,100467.38
2022-11-20T21:56:43.288Z,100490.44
2022-11-20T21:59:13.356Z,100493.03
2022-11-20T22:01:41.807Z,100499.97
2022-11-20T22:04:15.382Z,100492.25
2022-11-20T22:06:43.296Z,100490.44
2022-11-20T22:09:12.757Z,100477.66
2022-11-20T22:11:40.663Z,100477.75
2022-11-20T22:14:22.715Z,100452.69
2022-11-20T22:16:51.844Z,100462.69
2022-11-20T22:19:21.188Z,100473.50
2022-11-20T22:21:50.620Z,100467.34
2022-11-20T22:24:21.883Z,100470.81
2022-11-20T22:26:50.521Z,100473.69
2022-11-20T22:29:20.873Z,100459.91
2022-11-20T22:31:49.471Z,100344.19
2022-11-20T22:34:17.298Z,100446.34
2022-11-20T22:36:45.631Z,100466.94
2022-11-20T22:39:13.612Z,100471.31
2022-11-20T22:41:42.796Z,100465.34
2022-11-20T22:44:16.415Z,100464.56
2022-11-20T22:46:44.338Z,100469.00
2022-11-20T22:49:12.180Z,100471.59
2022-11-20T22:51:41.748Z,100473.38
2022-11-20T22:54:12.287Z,100464.84
2022-11-20T22:56:40.810Z,100458.41
2022-11-20T22:59:10.738Z,100463.06
2022-11-20T23:01:39.491Z,100462.25
2022-11-20T23:04:10.731Z,100431.97
2022-11-20T23:06:39.009Z,100460.38
2022-11-20T23:09:08.212Z,100458.88
2022-11-20T23:11:37.183Z,100468.31
2022-11-20T23:14:07.015Z,100469.19
2022-11-20T23:16:36.480Z,100467.31
2022-11-20T23:19:06.432Z,100465.34
2022-11-20T23:21:35.345Z,100463.56
2022-11-20T23:24:03.197Z,100468.91
2022-11-20T23:26:32.886Z,100465.44
2022-11-20T23:29:01.811Z,100475.06
2022-11-20T23:31:31.902Z,100462.88
2022-11-20T23:34:01.316Z,100472.28
2022-11-20T23:36:29.269Z,100470.50
2022-11-20T23:38:57.800Z,100465.34
2022-11-20T23:41:25.713Z,100469.72
2022-11-20T23:43:56.238Z,100472.28
2022-11-20T23:46:24.054Z,100463.66
2022-11-20T23:48:51.995Z,100463.56
2022-11-20T23:51:21.319Z,100464.16
2022-11-20T23:53:49.106Z,100456.34
2022-11-20T23:56:17.026Z,100466.56
2022-11-20T23:58:45.242Z,100473.41
